sensor_id;sensor_type;location;lat;lon;timestamp;pressure;altitude;pressure_sealevel;temperature;humidity
55171;BME280;41060;47.510;8.680;2024-01-15T00:01:23;96147.97;;;3.23;58.53
55171;BME280;41060;47.510;8.680;2024-01-15T00:03:49;96136.59;;;3.36;58.64
55171;BME280;41060;47.510;8.680;2024-01-15T00:06:16;96115.91;;;3.33;58.08
55171;BME280;41060;47.510;8.680;2024-01-15T00:08:43;96122.34;;;3.55;57.73
55171;BME280;41060;47.510;8.680;2024-01-15T00:11:10;96112.38;;;3.60;57.83
55171;BME280;41060;47.510;8.680;2024-01-15T00:13:36;96117.88;;;3.30;58.33
55171;BME280;41060;47.510;8.680;2024-01-15T00:16:05;96112.09;;;3.12;58.61
55171;BME280;41060;47.510;8.680;2024-01-15T00:18:32;96096.31;;;3.26;58.93
55171;BME280;41060;47.510;8.680;2024-01-15T00:21:06;96097.19;;;3.52;58.19
55171;BME280;41060;47.510;8.680;2024-01-15T00:23:33;96096.78;;;3.46;57.64
55171;BME280;41060;47.510;8.680;2024-01-15T00:26:03;96112.06;;;3.52;57.71
55171;BME280;41060;47.510;8.680;2024-01-15T00:28:30;96117.53;;;3.22;59.10
55171;BME280;41060;47.510;8.680;2024-01-15T00:30:57;96131.03;;;3.28;58.78
55171;BME280;41060;47.510;8.680;2024-01-15T00:33:25;96126.97;;;3.37;58.18
55171;BME280;41060;47.510;8.680;2024-01-15T00:35:51;96126.91;;;3.39;57.92
55171;BME280;41060;47.510;8.680;2024-01-15T00:38:18;96124.31;;;3.39;58.03
55171;BME280;41060;47.510;8.680;2024-01-15T00:40:45;96126.97;;;3.37;58.13
55171;BME280;41060;47.510;8.680;2024-01-15T00:43:12;96127.44;;;3.44;58.07
55171;BME280;41060;47.510;8.680;2024-01-15T00:45:39;96126.50;;;3.45;58.15
55171;BME280;41060;47.510;8.680;2024-01-15T00:48:06;96119.91;;;3.52;57.84
55171;BME280;41060;47.510;8.680;2024-01-15T00:50:34;96125.19;;;3.25;58.15
55171;BME280;41060;47.510;8.680;2024-01-15T00:53:01;96114.38;;;3.17;58.86
55171;BME280;41060;47.510;8.680;2024-01-15T00:55:28;96126.94;;;2.85;60.17
55171;BME280;41060;47.510;8.680;2024-01-15T00:57:55;96127.03;;;3.10;58.88
55171;BME280;41060;47.510;8.680;2024-01-15T01:00:22;96118.75;;;2.77;59.91
55171;BME280;41060;47.510;8.680;2024-01-15T01:02:49;96124.63;;;2.80;59.64
55171;BME280;41060;47.510;8.680;2024-01-15T01:05:15;96135.13;;;2.93;59.63
55171;BME280;41060;47.510;8.680;2024-01-15T01:07:44;96133.72;;;3.14;58.67
55171;BME280;41060;47.510;8.680;2024-01-15T01:10:11;96130.28;;;3.14;58.55
55171;BME280;41060;47.510;8.680;2024-01-15T01:12:37;96128.63;;;3.13;57.75
55171;BME280;41060;47.510;8.680;2024-01-15T01:15:05;96146.97;;;2.98;57.62
55171;BME280;41060;47.510;8.680;2024-01-15T01:17:32;96155.41;;;2.89;57.66
55171;BME280;41060;47.510;8.680;2024-01-15T01:19:59;96137.59;;;2.82;56.88
55171;BME280;41060;47.510;8.680;2024-01-15T01:22:26;96133.84;;;2.86;57.33
55171;BME280;41060;47.510;8.680;2024-01-15T01:24:54;96134.16;;;2.81;56.91
55171;BME280;41060;47.510;8.680;2024-01-15T01:27:21;96126.03;;;2.98;56.70
55171;BME280;41060;47.510;8.680;2024-01-15T01:29:48;96136.75;;;3.08;56.39
55171;BME280;41060;47.510;8.680;2024-01-15T01:32:15;96152.66;;;3.05;55.91
55171;BME280;41060;47.510;8.680;2024-01-15T01:34:41;96157.28;;;2.87;56.73
55171;BME280;41060;47.510;8.680;2024-01-15T01:37:09;96154.13;;;2.82;56.65
55171;BME280;41060;47.510;8.680;2024-01-15T01:39:38;96155.28;;;2.64;56.27
55171;BME280;41060;47.510;8.680;2024-01-15T01:42:06;96153.00;;;2.45;56.98
55171;BME280;41060;47.510;8.680;2024-01-15T01:44:33;96169.84;;;2.68;56.61
55171;BME280;41060;47.510;8.680;2024-01-15T01:47:00;96169.94;;;2.67;56.02
55171;BME280;41060;47.510;8.680;2024-01-15T01:49:27;96169.56;;;2.73;55.92
55171;BME280;41060;47.510;8.680;2024-01-15T01:51:57;96165.47;;;2.54;56.73
55171;BME280;41060;47.510;8.680;2024-01-15T01:54:24;96175.78;;;2.43;56.81
55171;BME280;41060;47.510;8.680;2024-01-15T01:56:51;96182.09;;;2.39;56.58
55171;BME280;41060;47.510;8.680;2024-01-15T01:59:20;96182.94;;;2.40;56.30
55171;BME280;41060;47.510;8.680;2024-01-15T02:01:49;96178.38;;;2.43;56.76
55171;BME280;41060;47.510;8.680;2024-01-15T02:04:16;96176.78;;;2.41;56.50
55171;BME280;41060;47.510;8.680;2024-01-15T02:06:44;96174.16;;;2.55;56.54
55171;BME280;41060;47.510;8.680;2024-01-15T02:09:11;96189.75;;;2.42;56.74
55171;BME280;41060;47.510;8.680;2024-01-15T02:11:40;96193.22;;;2.14;56.31
55171;BME280;41060;47.510;8.680;2024-01-15T02:14:08;96188.66;;;2.18;56.49
55171;BME280;41060;47.510;8.680;2024-01-15T02:16:36;96190.91;;;2.24;56.48
55171;BME280;41060;47.510;8.680;2024-01-15T02:19:03;96192.00;;;2.34;56.55
55171;BME280;41060;47.510;8.680;2024-01-15T02:21:31;96184.34;;;2.17;56.37
55171;BME280;41060;47.510;8.680;2024-01-15T02:23:59;96190.16;;;1.94;57.41
55171;BME280;41060;47.510;8.680;2024-01-15T02:26:27;96188.97;;;1.55;57.56
55171;BME280;41060;47.510;8.680;2024-01-15T02:28:54;96189.72;;;1.27;58.41
55171;BME280;41060;47.510;8.680;2024-01-15T02:31:21;96195.03;;;1.26;58.12
55171;BME280;41060;47.510;8.680;2024-01-15T02:33:48;96179.19;;;1.73;57.13
55171;BME280;41060;47.510;8.680;2024-01-15T02:36:16;96175.72;;;1.58;57.09
55171;BME280;41060;47.510;8.680;2024-01-15T02:38:42;96168.00;;;1.57;56.64
55171;BME280;41060;47.510;8.680;2024-01-15T02:41:10;96176.69;;;1.57;57.13
55171;BME280;41060;47.510;8.680;2024-01-15T02:43:40;96166.91;;;1.75;55.83
55171;BME280;41060;47.510;8.680;2024-01-15T02:46:07;96172.13;;;1.89;56.03
55171;BME280;41060;47.510;8.680;2024-01-15T02:48:33;96181.09;;;1.85;56.16
55171;BME280;41060;47.510;8.680;2024-01-15T02:51:00;96176.13;;;1.80;55.85
55171;BME280;41060;47.510;8.680;2024-01-15T02:53:27;96188.94;;;1.41;56.09
55171;BME280;41060;47.510;8.680;2024-01-15T02:55:54;96171.56;;;1.70;55.29
55171;BME280;41060;47.510;8.680;2024-01-15T02:58:22;96170.03;;;1.66;54.88
55171;BME280;41060;47.510;8.680;2024-01-15T03:00:49;96162.16;;;1.82;54.91
55171;BME280;41060;47.510;8.680;2024-01-15T03:03:15;96162.34;;;1.64;54.69
55171;BME280;41060;47.510;8.680;2024-01-15T03:05:43;96155.03;;;1.55;54.38
55171;BME280;41060;47.510;8.680;2024-01-15T03:08:09;96153.00;;;1.60;54.50
55171;BME280;41060;47.510;8.680;2024-01-15T03:10:36;96145.84;;;1.64;53.84
55171;BME280;41060;47.510;8.680;2024-01-15T03:13:03;96147.78;;;1.60;53.94
55171;BME280;41060;47.510;8.680;2024-01-15T03:15:31;96123.00;;;1.67;54.05
55171;BME280;41060;47.510;8.680;2024-01-15T03:17:58;96144.09;;;1.93;52.43
55171;BME280;41060;47.510;8.680;2024-01-15T03:20:25;96145.25;;;1.73;52.69
55171;BME280;41060;47.510;8.680;2024-01-15T03:22:52;96134.50;;;1.93;52.54
55171;BME280;41060;47.510;8.680;2024-01-15T03:25:18;96138.75;;;1.66;52.44
55171;BME280;41060;47.510;8.680;2024-01-15T03:27:45;96144.44;;;1.72;52.32
55171;BME280;41060;47.510;8.680;2024-01-15T03:30:13;96146.56;;;1.80;52.54
55171;BME280;41060;47.510;8.680;2024-01-15T03:32:41;96146.75;;;1.63;52.57
55171;BME280;41060;47.510;8.680;2024-01-15T03:35:08;96154.84;;;1.58;52.53
55171;BME280;41060;47.510;8.680;2024-01-15T03:37:35;96136.50;;;1.60;52.98
55171;BME280;41060;47.510;8.680;2024-01-15T03:40:02;96141.22;;;1.39;52.88
55171;BME280;41060;47.510;8.680;2024-01-15T03:42:29;96142.84;;;1.56;53.18
55171;BME280;41060;47.510;8.680;2024-01-15T03:44:56;96141.00;;;1.72;52.64
55171;BME280;41060;47.510;8.680;2024-01-15T03:47:22;96140.34;;;1.68;52.44
55171;BME280;41060;47.510;8.680;2024-01-15T03:49:51;96133.81;;;1.90;51.65
55171;BME280;41060;47.510;8.680;2024-01-15T03:52:17;96140.09;;;1.87;51.41
55171;BME280;41060;47.510;8.680;2024-01-15T03:54:44;96144.09;;;1.78;51.63
55171;BME280;41060;47.510;8.680;2024-01-15T03:57:11;96136.13;;;1.66;52.29
55171;BME280;41060;47.510;8.680;2024-01-15T03:59:40;96139.31;;;1.71;52.01
55171;BME280;41060;47.510;8.680;2024-01-15T04:02:06;96134.88;;;1.87;50.91
55171;BME280;41060;47.510;8.680;2024-01-15T04:04:34;96140.81;;;1.89;50.80
55171;BME280;41060;47.510;8.680;2024-01-15T04:07:02;96142.03;;;1.98;51.23
55171;BME280;41060;47.510;8.680;2024-01-15T04:09:28;96134.28;;;1.96;50.91
55171;BME280;41060;47.510;8.680;2024-01-15T04:11:55;96135.50;;;2.19;51.33
55171;BME280;41060;47.510;8.680;2024-01-15T04:14:22;96134.47;;;2.07;50.83
55171;BME280;41060;47.510;8.680;2024-01-15T04:16:48;96138.09;;;2.19;50.69
55171;BME280;41060;47.510;8.680;2024-01-15T04:19:16;96137.00;;;2.09;50.45
55171;BME280;41060;47.510;8.680;2024-01-15T04:21:42;96139.13;;;2.31;49.87
55171;BME280;41060;47.510;8.680;2024-01-15T04:24:10;96147.16;;;2.13;50.75
55171;BME280;41060;47.510;8.680;2024-01-15T04:26:37;96114.44;;;2.08;50.63
55171;BME280;41060;47.510;8.680;2024-01-15T04:29:04;96140.59;;;2.35;50.48
55171;BME280;41060;47.510;8.680;2024-01-15T04:31:31;96134.53;;;2.34;49.75
55171;BME280;41060;47.510;8.680;2024-01-15T04:33:58;96138.31;;;2.57;49.76
55171;BME280;41060;47.510;8.680;2024-01-15T04:36:24;96144.56;;;2.69;48.98
55171;BME280;41060;47.510;8.680;2024-01-15T04:38:51;96136.19;;;2.76;48.95
55171;BME280;41060;47.510;8.680;2024-01-15T04:41:19;96132.28;;;2.83;49.18
55171;BME280;41060;47.510;8.680;2024-01-15T04:43:46;96133.75;;;2.61;49.08
55171;BME280;41060;47.510;8.680;2024-01-15T04:46:13;96129.00;;;2.53;49.28
55171;BME280;41060;47.510;8.680;2024-01-15T04:48:40;96120.59;;;2.48;49.16
55171;BME280;41060;47.510;8.680;2024-01-15T04:51:08;96122.72;;;2.14;49.93
55171;BME280;41060;47.510;8.680;2024-01-15T04:53:35;96083.19;;;2.06;49.51
55171;BME280;41060;47.510;8.680;2024-01-15T04:56:03;96125.69;;;2.37;49.86
55171;BME280;41060;47.510;8.680;2024-01-15T04:58:31;96119.59;;;2.50;48.93
55171;BME280;41060;47.510;8.680;2024-01-15T05:00:58;96114.41;;;2.63;49.27
55171;BME280;41060;47.510;8.680;2024-01-15T05:03:25;96114.63;;;2.60;50.20
55171;BME280;41060;47.510;8.680;2024-01-15T05:05:52;96107.00;;;2.70;48.76
55171;BME280;41060;47.510;8.680;2024-01-15T05:08:20;96114.91;;;2.82;49.61
55171;BME280;41060;47.510;8.680;2024-01-15T05:10:48;96107.53;;;3.02;49.09
55171;BME280;41060;47.510;8.680;2024-01-15T05:13:14;96110.16;;;3.02;48.35
55171;BME280;41060;47.510;8.680;2024-01-15T05:15:42;96103.38;;;2.72;49.25
55171;BME280;41060;47.510;8.680;2024-01-15T05:18:09;96102.78;;;2.81;49.34
55171;BME280;41060;47.510;8.680;2024-01-15T05:20:36;96105.25;;;2.97;49.03
55171;BME280;41060;47.510;8.680;2024-01-15T05:23:03;96110.69;;;3.07;48.73
55171;BME280;41060;47.510;8.680;2024-01-15T05:25:32;96116.56;;;3.10;49.05
55171;BME280;41060;47.510;8.680;2024-01-15T05:28:02;96117.31;;;2.85;49.62
55171;BME280;41060;47.510;8.680;2024-01-15T05:30:29;96119.34;;;2.94;49.26
55171;BME280;41060;47.510;8.680;2024-01-15T05:32:57;96118.91;;;2.88;49.17
55171;BME280;41060;47.510;8.680;2024-01-15T05:35:25;96112.44;;;2.93;48.50
55171;BME280;41060;47.510;8.680;2024-01-15T05:37:52;96117.22;;;2.87;48.99
55171;BME280;41060;47.510;8.680;2024-01-15T05:40:19;96111.25;;;2.85;48.58
55171;BME280;41060;47.510;8.680;2024-01-15T05:42:45;96128.00;;;2.82;48.56
55171;BME280;41060;47.510;8.680;2024-01-15T05:45:12;96111.00;;;3.02;48.90
55171;BME280;41060;47.510;8.680;2024-01-15T05:47:39;96106.09;;;2.97;48.66
55171;BME280;41060;47.510;8.680;2024-01-15T05:50:08;96106.97;;;2.84;48.87
55171;BME280;41060;47.510;8.680;2024-01-15T05:52:34;96098.81;;;2.35;49.85
55171;BME280;41060;47.510;8.680;2024-01-15T05:55:02;96105.09;;;2.04;50.39
55171;BME280;41060;47.510;8.680;2024-01-15T05:57:28;96114.69;;;2.03;50.58
55171;BME280;41060;47.510;8.680;2024-01-15T05:59:56;96114.69;;;1.75;51.81
55171;BME280;41060;47.510;8.680;2024-01-15T06:02:23;96111.06;;;2.06;51.24
55171;BME280;41060;47.510;8.680;2024-01-15T06:04:49;96102.34;;;2.34;50.52
55171;BME280;41060;47.510;8.680;2024-01-15T06:07:17;96104.13;;;2.33;49.84
55171;BME280;41060;47.510;8.680;2024-01-15T06:09:44;96096.72;;;2.40;49.87
55171;BME280;41060;47.510;8.680;2024-01-15T06:12:11;96099.47;;;2.65;49.24
55171;BME280;41060;47.510;8.680;2024-01-15T06:14:38;96110.03;;;2.64;49.24
55171;BME280;41060;47.510;8.680;2024-01-15T06:17:05;96098.81;;;2.62;49.72
55171;BME280;41060;47.510;8.680;2024-01-15T06:19:32;96093.78;;;2.17;50.56
55171;BME280;41060;47.510;8.680;2024-01-15T06:21:58;96094.84;;;2.01;50.85
55171;BME280;41060;47.510;8.680;2024-01-15T06:24:27;96095.03;;;1.98;50.93
55171;BME280;41060;47.510;8.680;2024-01-15T06:26:53;96101.66;;;1.75;51.54
55171;BME280;41060;47.510;8.680;2024-01-15T06:29:21;96100.34;;;1.96;51.01
55171;BME280;41060;47.510;8.680;2024-01-15T06:31:50;96103.97;;;2.22;50.72
55171;BME280;41060;47.510;8.680;2024-01-15T06:34:16;96101.88;;;2.41;50.33
55171;BME280;41060;47.510;8.680;2024-01-15T06:36:43;96103.47;;;2.44;50.04
55171;BME280;41060;47.510;8.680;2024-01-15T06:39:10;96099.81;;;2.46;49.84
55171;BME280;41060;47.510;8.680;2024-01-15T06:41:38;96097.25;;;2.59;50.16
55171;BME280;41060;47.510;8.680;2024-01-15T06:44:08;96096.94;;;2.64;49.54
55171;BME280;41060;47.510;8.680;2024-01-15T06:46:42;96087.59;;;2.74;49.53
55171;BME280;41060;47.510;8.680;2024-01-15T06:49:08;96095.03;;;2.80;49.64
55171;BME280;41060;47.510;8.680;2024-01-15T06:51:36;96091.81;;;2.62;49.44
55171;BME280;41060;47.510;8.680;2024-01-15T06:54:03;96100.88;;;2.30;50.33
55171;BME280;41060;47.510;8.680;2024-01-15T06:56:29;96104.06;;;2.21;50.88
55171;BME280;41060;47.510;8.680;2024-01-15T06:59:06;96108.53;;;2.18;50.60
55171;BME280;41060;47.510;8.680;2024-01-15T07:01:33;96086.78;;;2.18;50.69
55171;BME280;41060;47.510;8.680;2024-01-15T07:04:00;96105.50;;;2.53;50.26
55171;BME280;41060;47.510;8.680;2024-01-15T07:06:27;96106.50;;;2.77;49.82
55171;BME280;41060;47.510;8.680;2024-01-15T07:08:53;96093.75;;;2.73;50.05
55171;BME280;41060;47.510;8.680;2024-01-15T07:11:20;96082.72;;;2.82;50.15
55171;BME280;41060;47.510;8.680;2024-01-15T07:13:50;96089.22;;;2.89;49.68
55171;BME280;41060;47.510;8.680;2024-01-15T07:16:18;96089.75;;;2.94;49.96
55171;BME280;41060;47.510;8.680;2024-01-15T07:18:44;96094.28;;;3.05;48.78
55171;BME280;41060;47.510;8.680;2024-01-15T07:21:11;96092.81;;;3.13;49.31
55171;BME280;41060;47.510;8.680;2024-01-15T07:23:38;96100.63;;;3.27;49.03
55171;BME280;41060;47.510;8.680;2024-01-15T07:26:05;96099.25;;;3.34;48.18
55171;BME280;41060;47.510;8.680;2024-01-15T07:28:32;96099.63;;;3.43;48.38
55171;BME280;41060;47.510;8.680;2024-01-15T07:30:59;96107.75;;;3.38;48.42
55171;BME280;41060;47.510;8.680;2024-01-15T07:33:28;96107.31;;;3.31;48.78
55171;BME280;41060;47.510;8.680;2024-01-15T07:35:57;96100.44;;;2.77;49.54
55171;BME280;41060;47.510;8.680;2024-01-15T07:38:24;96093.81;;;2.58;50.01
55171;BME280;41060;47.510;8.680;2024-01-15T07:40:51;96100.28;;;2.92;49.79
55171;BME280;41060;47.510;8.680;2024-01-15T07:43:19;96093.78;;;3.12;48.83
55171;BME280;41060;47.510;8.680;2024-01-15T07:45:46;96101.63;;;3.12;48.34
55171;BME280;41060;47.510;8.680;2024-01-15T07:48:12;96104.34;;;2.84;49.24
55171;BME280;41060;47.510;8.680;2024-01-15T07:50:41;96111.03;;;2.75;50.18
55171;BME280;41060;47.510;8.680;2024-01-15T07:53:08;96096.31;;;2.87;49.79
55171;BME280;41060;47.510;8.680;2024-01-15T07:55:34;96109.72;;;2.95;49.84
55171;BME280;41060;47.510;8.680;2024-01-15T07:58:02;96111.88;;;2.62;49.93
55171;BME280;41060;47.510;8.680;2024-01-15T08:00:28;96119.41;;;2.53;50.69
55171;BME280;41060;47.510;8.680;2024-01-15T08:02:55;96113.59;;;2.48;50.76
55171;BME280;41060;47.510;8.680;2024-01-15T08:05:22;96094.59;;;2.46;50.47
55171;BME280;41060;47.510;8.680;2024-01-15T08:07:50;96119.34;;;2.68;50.34
55171;BME280;41060;47.510;8.680;2024-01-15T08:10:17;96115.97;;;2.92;50.25
55171;BME280;41060;47.510;8.680;2024-01-15T08:12:44;96115.59;;;2.72;49.63
55171;BME280;41060;47.510;8.680;2024-01-15T08:15:11;96127.81;;;2.71;50.47
55171;BME280;41060;47.510;8.680;2024-01-15T08:17:39;96120.66;;;2.75;50.14
55171;BME280;41060;47.510;8.680;2024-01-15T08:20:06;96116.28;;;2.88;50.28
55171;BME280;41060;47.510;8.680;2024-01-15T08:22:33;96117.09;;;2.76;49.48
55171;BME280;41060;47.510;8.680;2024-01-15T08:25:01;96105.59;;;2.78;49.97
55171;BME280;41060;47.510;8.680;2024-01-15T08:27:29;96112.50;;;2.79;49.72
55171;BME280;41060;47.510;8.680;2024-01-15T08:29:56;96123.84;;;2.66;50.36
55171;BME280;41060;47.510;8.680;2024-01-15T08:32:22;96123.66;;;2.69;49.64
55171;BME280;41060;47.510;8.680;2024-01-15T08:34:49;96131.97;;;2.47;50.84
55171;BME280;41060;47.510;8.680;2024-01-15T08:37:17;96123.91;;;2.37;50.44
55171;BME280;41060;47.510;8.680;2024-01-15T08:39:44;96143.13;;;2.36;51.09
55171;BME280;41060;47.510;8.680;2024-01-15T08:42:13;96139.22;;;2.15;51.00
55171;BME280;41060;47.510;8.680;2024-01-15T08:44:42;96134.25;;;2.25;50.60
55171;BME280;41060;47.510;8.680;2024-01-15T08:47:09;96139.19;;;2.43;50.93
55171;BME280;41060;47.510;8.680;2024-01-15T08:49:36;96140.22;;;2.41;50.56
55171;BME280;41060;47.510;8.680;2024-01-15T08:52:03;96132.84;;;2.33;50.36
55171;BME280;41060;47.510;8.680;2024-01-15T08:54:29;96142.22;;;2.09;51.55
55171;BME280;41060;47.510;8.680;2024-01-15T08:56:57;96136.78;;;2.26;50.96
55171;BME280;41060;47.510;8.680;2024-01-15T08:59:25;96125.13;;;2.17;51.50
55171;BME280;41060;47.510;8.680;2024-01-15T09:01:51;96131.28;;;2.02;51.75
55171;BME280;41060;47.510;8.680;2024-01-15T09:04:18;96130.34;;;2.32;51.42
55171;BME280;41060;47.510;8.680;2024-01-15T09:06:45;96134.16;;;2.40;50.72
55171;BME280;41060;47.510;8.680;2024-01-15T09:09:13;96137.34;;;2.45;50.77
55171;BME280;41060;47.510;8.680;2024-01-15T09:11:40;96142.81;;;2.41;50.76
55171;BME280;41060;47.510;8.680;2024-01-15T09:14:07;96138.50;;;2.54;50.92
55171;BME280;41060;47.510;8.680;2024-01-15T09:16:35;96135.72;;;2.57;50.53
55171;BME280;41060;47.510;8.680;2024-01-15T09:19:03;96132.09;;;2.45;49.80
55171;BME280;41060;47.510;8.680;2024-01-15T09:21:29;96132.38;;;2.41;50.66
55171;BME280;41060;47.510;8.680;2024-01-15T09:23:56;96127.16;;;2.41;50.05
55171;BME280;41060;47.510;8.680;2024-01-15T09:26:24;96122.34;;;2.06;50.08
55171;BME280;41060;47.510;8.680;2024-01-15T09:28:57;96124.34;;;2.44;49.37
55171;BME280;41060;47.510;8.680;2024-01-15T09:31:24;96122.94;;;2.52;49.13
55171;BME280;41060;47.510;8.680;2024-01-15T09:33:52;96118.84;;;2.48;49.55
55171;BME280;41060;47.510;8.680;2024-01-15T09:36:21;96122.56;;;2.58;48.86
55171;BME280;41060;47.510;8.680;2024-01-15T09:38:48;96129.69;;;2.42;49.11
55171;BME280;41060;47.510;8.680;2024-01-15T09:41:18;96135.41;;;2.21;49.69
55171;BME280;41060;47.510;8.680;2024-01-15T09:43:45;96134.41;;;2.09;50.15
55171;BME280;41060;47.510;8.680;2024-01-15T09:46:13;96129.34;;;2.06;49.86
55171;BME280;41060;47.510;8.680;2024-01-15T09:48:43;96114.16;;;1.98;49.89
55171;BME280;41060;47.510;8.680;2024-01-15T09:51:11;96120.59;;;2.07;50.14
55171;BME280;41060;47.510;8.680;2024-01-15T09:53:39;96125.59;;;1.67;49.93
55171;BME280;41060;47.510;8.680;2024-01-15T09:56:08;96117.16;;;1.92;49.52
55171;BME280;41060;47.510;8.680;2024-01-15T09:58:35;96117.16;;;1.92;49.86
55171;BME280;41060;47.510;8.680;2024-01-15T10:01:03;96113.78;;;2.04;49.49
55171;BME280;41060;47.510;8.680;2024-01-15T10:03:29;96108.19;;;1.96;49.11
55171;BME280;41060;47.510;8.680;2024-01-15T10:05:57;96113.66;;;2.20;49.02
55171;BME280;41060;47.510;8.680;2024-01-15T10:08:27;96113.50;;;2.50;47.49
55171;BME280;41060;47.510;8.680;2024-01-15T10:10:54;96110.59;;;2.69;47.14
55171;BME280;41060;47.510;8.680;2024-01-15T10:13:22;96108.13;;;2.92;47.34
55171;BME280;41060;47.510;8.680;2024-01-15T10:15:49;96101.22;;;2.91;47.07
55171;BME280;41060;47.510;8.680;2024-01-15T10:18:15;96111.09;;;3.01;47.86
55171;BME280;41060;47.510;8.680;2024-01-15T10:20:42;96102.50;;;2.98;47.65
55171;BME280;41060;47.510;8.680;2024-01-15T10:23:09;96098.97;;;3.00;47.56
55171;BME280;41060;47.510;8.680;2024-01-15T10:25:37;96062.47;;;2.98;47.64
55171;BME280;41060;47.510;8.680;2024-01-15T10:28:04;96074.84;;;3.21;47.57
55171;BME280;41060;47.510;8.680;2024-01-15T10:30:32;96042.41;;;3.24;47.32
55171;BME280;41060;47.510;8.680;2024-01-15T10:32:59;96056.69;;;3.45;47.61
55171;BME280;41060;47.510;8.680;2024-01-15T10:35:27;96050.31;;;3.62;47.40
55171;BME280;41060;47.510;8.680;2024-01-15T10:37:55;96055.13;;;3.68;47.08
55171;BME280;41060;47.510;8.680;2024-01-15T10:40:21;96005.28;;;3.44;47.01
55171;BME280;41060;47.510;8.680;2024-01-15T10:42:50;96049.03;;;3.80;47.02
55171;BME280;41060;47.510;8.680;2024-01-15T10:45:17;96049.75;;;3.82;45.64
55171;BME280;41060;47.510;8.680;2024-01-15T10:47:44;96048.09;;;3.81;46.12
55171;BME280;41060;47.510;8.680;2024-01-15T10:50:11;96042.66;;;3.46;46.61
55171;BME280;41060;47.510;8.680;2024-01-15T10:52:40;96041.63;;;3.49;46.62
55171;BME280;41060;47.510;8.680;2024-01-15T10:55:08;96039.63;;;3.40;47.17
55171;BME280;41060;47.510;8.680;2024-01-15T10:57:35;96032.50;;;3.67;47.18
55171;BME280;41060;47.510;8.680;2024-01-15T11:00:06;96035.22;;;3.78;46.00
55171;BME280;41060;47.510;8.680;2024-01-15T11:02:35;96014.28;;;3.65;45.79
55171;BME280;41060;47.510;8.680;2024-01-15T11:05:03;96019.06;;;3.84;45.34
55171;BME280;41060;47.510;8.680;2024-01-15T11:07:30;96033.81;;;3.98;45.79
55171;BME280;41060;47.510;8.680;2024-01-15T11:09:57;96013.81;;;3.97;45.35
55171;BME280;41060;47.510;8.680;2024-01-15T11:12:25;96034.25;;;3.92;44.98
55171;BME280;41060;47.510;8.680;2024-01-15T11:14:51;96027.63;;;3.99;44.83
55171;BME280;41060;47.510;8.680;2024-01-15T11:17:21;96016.00;;;4.03;44.96
55171;BME280;41060;47.510;8.680;2024-01-15T11:19:49;96012.75;;;3.99;44.99
55171;BME280;41060;47.510;8.680;2024-01-15T11:22:47;96014.34;;;4.02;44.95
55171;BME280;41060;47.510;8.680;2024-01-15T11:25:16;96019.59;;;3.89;45.28
55171;BME280;41060;47.510;8.680;2024-01-15T11:27:47;96016.88;;;3.91;44.63
55171;BME280;41060;47.510;8.680;2024-01-15T11:30:24;96015.03;;;4.04;45.04
55171;BME280;41060;47.510;8.680;2024-01-15T11:32:53;96009.38;;;4.10;44.64
55171;BME280;41060;47.510;8.680;2024-01-15T11:35:20;96014.19;;;4.03;44.84
55171;BME280;41060;47.510;8.680;2024-01-15T11:37:58;96014.25;;;3.91;43.95
55171;BME280;41060;47.510;8.680;2024-01-15T11:40:38;95984.94;;;3.86;44.10
55171;BME280;41060;47.510;8.680;2024-01-15T11:43:05;95990.53;;;4.05;44.22
55171;BME280;41060;47.510;8.680;2024-01-15T11:45:32;95980.50;;;3.99;44.01
55171;BME280;41060;47.510;8.680;2024-01-15T11:48:12;95990.63;;;4.16;44.22
55171;BME280;41060;47.510;8.680;2024-01-15T11:50:41;95979.50;;;4.12;44.32
55171;BME280;41060;47.510;8.680;2024-01-15T11:53:17;95990.91;;;4.24;44.16
55171;BME280;41060;47.510;8.680;2024-01-15T11:55:45;95978.28;;;4.29;44.58
55171;BME280;41060;47.510;8.680;2024-01-15T11:58:14;95981.31;;;4.36;44.51
55171;BME280;41060;47.510;8.680;2024-01-15T12:00:47;95991.97;;;4.45;44.42
55171;BME280;41060;47.510;8.680;2024-01-15T12:03:21;95977.75;;;4.37;44.22
55171;BME280;41060;47.510;8.680;2024-01-15T12:05:48;95984.31;;;4.42;44.40
55171;BME280;41060;47.510;8.680;2024-01-15T12:08:20;95977.78;;;4.48;44.00
55171;BME280;41060;47.510;8.680;2024-01-15T12:10:48;95975.22;;;4.59;43.84
55171;BME280;41060;47.510;8.680;2024-01-15T12:13:14;95974.59;;;4.56;43.91
55171;BME280;41060;47.510;8.680;2024-01-15T12:15:45;95972.50;;;4.61;43.83
55171;BME280;41060;47.510;8.680;2024-01-15T12:18:14;95968.31;;;4.58;44.01
55171;BME280;41060;47.510;8.680;2024-01-15T12:20:43;95993.38;;;4.73;44.37
55171;BME280;41060;47.510;8.680;2024-01-15T12:23:12;95974.41;;;4.70;43.81
55171;BME280;41060;47.510;8.680;2024-01-15T12:25:40;95970.94;;;4.69;43.64
55171;BME280;41060;47.510;8.680;2024-01-15T12:28:10;95986.56;;;4.71;43.63
55171;BME280;41060;47.510;8.680;2024-01-15T12:30:36;95988.31;;;4.83;43.32
55171;BME280;41060;47.510;8.680;2024-01-15T12:33:05;95979.88;;;4.90;43.28
55171;BME280;41060;47.510;8.680;2024-01-15T12:35:32;95980.94;;;4.99;42.92
55171;BME280;41060;47.510;8.680;2024-01-15T12:38:01;95969.38;;;4.90;42.96
55171;BME280;41060;47.510;8.680;2024-01-15T12:40:30;95968.91;;;4.97;42.74
55171;BME280;41060;47.510;8.680;2024-01-15T12:42:56;95978.94;;;5.03;43.16
55171;BME280;41060;47.510;8.680;2024-01-15T12:45:23;95973.47;;;5.06;42.99
55171;BME280;41060;47.510;8.680;2024-01-15T12:47:51;95976.47;;;5.12;42.88
55171;BME280;41060;47.510;8.680;2024-01-15T12:50:17;95976.00;;;5.18;42.68
55171;BME280;41060;47.510;8.680;2024-01-15T12:52:44;95981.41;;;4.93;42.53
55171;BME280;41060;47.510;8.680;2024-01-15T12:55:13;95982.44;;;4.79;42.75
55171;BME280;41060;47.510;8.680;2024-01-15T12:57:40;95984.38;;;4.88;42.09
55171;BME280;41060;47.510;8.680;2024-01-15T13:00:07;95974.16;;;5.08;42.40
55171;BME280;41060;47.510;8.680;2024-01-15T13:02:43;95971.56;;;5.19;42.07
55171;BME280;41060;47.510;8.680;2024-01-15T13:05:11;95970.28;;;5.24;42.20
55171;BME280;41060;47.510;8.680;2024-01-15T13:07:37;95968.38;;;5.26;42.24
55171;BME280;41060;47.510;8.680;2024-01-15T13:10:05;95965.63;;;5.28;42.03
55171;BME280;41060;47.510;8.680;2024-01-15T13:12:36;95963.59;;;5.32;42.15